Grimbergen, Belgium
Current Conditions -  °F | °C
As of 4:50 PM on Sunday 21 Dec 2014 (Local Time) from EBBR Reporting Station
Drizzle Drizzle  
Wind Chill: 39°   Ceiling: 1000
Heat Index: 46°   Visibility: 3mi
Dew Point: 43°   Wind: 17mph
Humidity: 87%   Direction: 240°WSW
Pressure: 30.3"   Gusts: NA
Location:  50.93°N, 4.37°E
Report Text: EBBR 211550Z 24015KT 5000 -DZ SCT007 BKN010 08/06 Q1026 RERA TEMPO 4500 DZ BKN008
Loading
Personal Weather Stations






























Interactive Weather Map New forecast layout! Learn more

10-Day Weather Forecast

Advertisements
Track Severe Weather on mobile